sensor_id;sensor_type;location;lat;lon;timestamp;pressure;altitude;pressure_sealevel;temperature;humidity
69247;BME280;56358;56.328;43.992;2024-03-29T00:00:04;100504.53;;;4.49;42.23
69247;BME280;56358;56.328;43.992;2024-03-29T00:02:05;100505.47;;;4.48;42.15
69247;BME280;56358;56.328;43.992;2024-03-29T00:04:06;100505.78;;;4.42;41.99
69247;BME280;56358;56.328;43.992;2024-03-29T00:06:07;100500.78;;;4.35;42.07
69247;BME280;56358;56.328;43.992;2024-03-29T00:08:07;100489.38;;;4.33;42.14
69247;BME280;56358;56.328;43.992;2024-03-29T00:10:08;100504.59;;;4.47;41.81
69247;BME280;56358;56.328;43.992;2024-03-29T00:12:09;100508.97;;;4.48;41.66
69247;BME280;56358;56.328;43.992;2024-03-29T00:14:09;100508.13;;;4.48;41.72
69247;BME280;56358;56.328;43.992;2024-03-29T00:16:10;100508.13;;;4.48;41.89
69247;BME280;56358;56.328;43.992;2024-03-29T00:18:12;100467.38;;;4.14;41.71
69247;BME280;56358;56.328;43.992;2024-03-29T00:20:12;100507.41;;;4.44;41.85
69247;BME280;56358;56.328;43.992;2024-03-29T00:22:13;100503.13;;;4.42;42.20
69247;BME280;56358;56.328;43.992;2024-03-29T00:24:14;100490.94;;;4.38;41.98
69247;BME280;56358;56.328;43.992;2024-03-29T00:26:14;100517.41;;;4.39;41.97
69247;BME280;56358;56.328;43.992;2024-03-29T00:28:15;100517.47;;;4.38;42.00
69247;BME280;56358;56.328;43.992;2024-03-29T00:30:16;100510.41;;;4.38;41.88
69247;BME280;56358;56.328;43.992;2024-03-29T00:32:16;100442.41;;;4.00;42.39
69247;BME280;56358;56.328;43.992;2024-03-29T00:34:17;100489.69;;;4.27;41.94
69247;BME280;56358;56.328;43.992;2024-03-29T00:36:18;100508.03;;;4.32;42.08
69247;BME280;56358;56.328;43.992;2024-03-29T00:38:18;100509.91;;;4.30;41.89
69247;BME280;56358;56.328;43.992;2024-03-29T00:40:19;100486.50;;;4.20;41.69
69247;BME280;56358;56.328;43.992;2024-03-29T00:42:20;100504.59;;;4.30;41.95
69247;BME280;56358;56.328;43.992;2024-03-29T00:44:21;100435.25;;;3.85;41.94
69247;BME280;56358;56.328;43.992;2024-03-29T00:46:22;100443.91;;;3.89;42.36
69247;BME280;56358;56.328;43.992;2024-03-29T00:48:22;100505.69;;;4.26;41.71
69247;BME280;56358;56.328;43.992;2024-03-29T00:50:23;100508.34;;;4.26;41.66
69247;BME280;56358;56.328;43.992;2024-03-29T00:52:24;100495.88;;;4.28;42.30
69247;BME280;56358;56.328;43.992;2024-03-29T00:54:24;100488.31;;;4.20;42.90
69247;BME280;56358;56.328;43.992;2024-03-29T00:56:25;100492.97;;;4.15;43.36
69247;BME280;56358;56.328;43.992;2024-03-29T00:58:26;100311.22;;;3.02;43.35
69247;BME280;56358;56.328;43.992;2024-03-29T01:00:26;100492.97;;;3.97;44.05
69247;BME280;56358;56.328;43.992;2024-03-29T01:02:27;100488.00;;;3.91;43.83
69247;BME280;56358;56.328;43.992;2024-03-29T01:04:28;100493.50;;;3.86;44.23
69247;BME280;56358;56.328;43.992;2024-03-29T01:06:28;100490.16;;;3.83;44.37
69247;BME280;56358;56.328;43.992;2024-03-29T01:08:29;100470.88;;;3.62;45.48
69247;BME280;56358;56.328;43.992;2024-03-29T01:10:30;100487.47;;;3.65;46.60
69247;BME280;56358;56.328;43.992;2024-03-29T01:12:30;100494.22;;;3.53;48.14
69247;BME280;56358;56.328;43.992;2024-03-29T01:14:31;100485.94;;;3.42;48.79
69247;BME280;56358;56.328;43.992;2024-03-29T01:16:32;100477.72;;;3.29;49.04
69247;BME280;56358;56.328;43.992;2024-03-29T01:18:33;100455.13;;;3.03;49.78
69247;BME280;56358;56.328;43.992;2024-03-29T01:20:34;100476.59;;;2.97;50.16
69247;BME280;56358;56.328;43.992;2024-03-29T01:22:35;100434.50;;;2.72;50.44
69247;BME280;56358;56.328;43.992;2024-03-29T01:24:36;100472.63;;;2.87;50.66
69247;BME280;56358;56.328;43.992;2024-03-29T01:26:37;100487.25;;;2.76;51.08
69247;BME280;56358;56.328;43.992;2024-03-29T01:28:37;100474.50;;;2.65;52.02
69247;BME280;56358;56.328;43.992;2024-03-29T01:30:38;100442.25;;;2.37;52.39
69247;BME280;56358;56.328;43.992;2024-03-29T01:32:39;100483.31;;;2.45;53.54
69247;BME280;56358;56.328;43.992;2024-03-29T01:34:39;100401.81;;;1.93;53.69
69247;BME280;56358;56.328;43.992;2024-03-29T01:36:40;100340.34;;;1.47;54.52
69247;BME280;56358;56.328;43.992;2024-03-29T01:38:41;100396.72;;;1.68;55.38
69247;BME280;56358;56.328;43.992;2024-03-29T01:40:43;100415.00;;;1.73;56.33
69247;BME280;56358;56.328;43.992;2024-03-29T01:42:43;100397.34;;;1.53;56.39
69247;BME280;56358;56.328;43.992;2024-03-29T01:44:44;100472.53;;;1.88;57.54
69247;BME280;56358;56.328;43.992;2024-03-29T01:46:45;100463.31;;;1.76;57.54
69247;BME280;56358;56.328;43.992;2024-03-29T01:48:48;100468.00;;;1.70;58.42
69247;BME280;56358;56.328;43.992;2024-03-29T01:50:49;100438.16;;;1.45;59.38
69247;BME280;56358;56.328;43.992;2024-03-29T01:52:51;100465.19;;;1.52;60.23
69247;BME280;56358;56.328;43.992;2024-03-29T01:54:52;100469.03;;;1.45;60.00
69247;BME280;56358;56.328;43.992;2024-03-29T01:56:52;100476.34;;;1.38;60.49
69247;BME280;56358;56.328;43.992;2024-03-29T01:58:55;100449.75;;;1.19;60.90
69247;BME280;56358;56.328;43.992;2024-03-29T02:00:58;100370.66;;;0.72;61.44
69247;BME280;56358;56.328;43.992;2024-03-29T02:03:00;100472.47;;;1.25;61.12
69247;BME280;56358;56.328;43.992;2024-03-29T02:05:02;100469.97;;;1.20;62.35
69247;BME280;56358;56.328;43.992;2024-03-29T02:07:04;100393.66;;;0.68;62.33
69247;BME280;56358;56.328;43.992;2024-03-29T02:09:05;100479.78;;;1.16;60.94
69247;BME280;56358;56.328;43.992;2024-03-29T02:11:06;100474.84;;;1.09;61.84
69247;BME280;56358;56.328;43.992;2024-03-29T02:13:07;100419.13;;;0.69;61.87
69247;BME280;56358;56.328;43.992;2024-03-29T02:15:08;100484.94;;;0.97;62.17
69247;BME280;56358;56.328;43.992;2024-03-29T02:17:09;100442.94;;;0.68;62.38
69247;BME280;56358;56.328;43.992;2024-03-29T02:19:10;100458.50;;;0.75;62.41
69247;BME280;56358;56.328;43.992;2024-03-29T02:21:11;100480.88;;;0.89;62.88
69247;BME280;56358;56.328;43.992;2024-03-29T02:23:15;100406.91;;;0.43;62.98
69247;BME280;56358;56.328;43.992;2024-03-29T02:25:16;100415.66;;;0.45;62.92
69247;BME280;56358;56.328;43.992;2024-03-29T02:27:18;100476.84;;;0.78;62.61
69247;BME280;56358;56.328;43.992;2024-03-29T02:29:19;100476.09;;;0.75;63.38
69247;BME280;56358;56.328;43.992;2024-03-29T02:31:20;100485.94;;;0.71;63.87
69247;BME280;56358;56.328;43.992;2024-03-29T02:33:21;100465.88;;;0.65;63.15
69247;BME280;56358;56.328;43.992;2024-03-29T02:35:22;100476.41;;;0.67;63.88
69247;BME280;56358;56.328;43.992;2024-03-29T02:37:22;100405.13;;;0.20;63.98
69247;BME280;56358;56.328;43.992;2024-03-29T02:39:23;100454.13;;;0.50;64.03
69247;BME280;56358;56.328;43.992;2024-03-29T02:41:24;100458.50;;;0.52;63.79
69247;BME280;56358;56.328;43.992;2024-03-29T02:43:26;100457.31;;;0.59;63.97
69247;BME280;56358;56.328;43.992;2024-03-29T02:45:27;100448.69;;;0.55;63.72
69247;BME280;56358;56.328;43.992;2024-03-29T02:47:28;100478.09;;;0.68;64.06
69247;BME280;56358;56.328;43.992;2024-03-29T02:49:28;100478.28;;;0.63;64.12
69247;BME280;56358;56.328;43.992;2024-03-29T02:51:29;100490.38;;;0.69;63.62
69247;BME280;56358;56.328;43.992;2024-03-29T02:53:30;100494.81;;;0.69;63.97
69247;BME280;56358;56.328;43.992;2024-03-29T02:55:30;100497.44;;;0.69;63.80
69247;BME280;56358;56.328;43.992;2024-03-29T02:57:31;100478.97;;;0.69;63.60
69247;BME280;56358;56.328;43.992;2024-03-29T02:59:32;100502.81;;;0.65;64.07
69247;BME280;56358;56.328;43.992;2024-03-29T03:01:32;100456.75;;;0.50;63.70
69247;BME280;56358;56.328;43.992;2024-03-29T03:03:33;100411.16;;;0.23;63.82
69247;BME280;56358;56.328;43.992;2024-03-29T03:05:34;100410.00;;;0.30;63.83
69247;BME280;56358;56.328;43.992;2024-03-29T03:07:35;100473.63;;;0.70;63.67
69247;BME280;56358;56.328;43.992;2024-03-29T03:09:54;100474.34;;;0.75;63.52
69247;BME280;56358;56.328;43.992;2024-03-29T03:12:13;100482.94;;;0.80;63.59
69247;BME280;56358;56.328;43.992;2024-03-29T03:14:14;100474.00;;;0.85;63.25
69247;BME280;56358;56.328;43.992;2024-03-29T03:16:14;100490.50;;;0.90;62.68
69247;BME280;56358;56.328;43.992;2024-03-29T03:18:15;100480.88;;;0.89;63.31
69247;BME280;56358;56.328;43.992;2024-03-29T03:20:16;100494.00;;;0.90;63.28
69247;BME280;56358;56.328;43.992;2024-03-29T03:22:16;100443.91;;;0.65;62.93
69247;BME280;56358;56.328;43.992;2024-03-29T03:24:17;100481.91;;;0.85;63.22
69247;BME280;56358;56.328;43.992;2024-03-29T03:26:18;100486.03;;;0.92;63.20
69247;BME280;56358;56.328;43.992;2024-03-29T03:28:18;100476.63;;;0.85;63.04
69247;BME280;56358;56.328;43.992;2024-03-29T03:30:19;100483.56;;;0.87;62.85
69247;BME280;56358;56.328;43.992;2024-03-29T03:32:20;100493.09;;;0.91;63.03
69247;BME280;56358;56.328;43.992;2024-03-29T03:34:21;100486.03;;;0.92;62.77
69247;BME280;56358;56.328;43.992;2024-03-29T03:36:21;100485.97;;;0.93;62.38
69247;BME280;56358;56.328;43.992;2024-03-29T03:38:23;100489.50;;;0.94;62.33
69247;BME280;56358;56.328;43.992;2024-03-29T03:40:24;100485.97;;;0.93;62.12
69247;BME280;56358;56.328;43.992;2024-03-29T03:42:24;100485.91;;;0.95;61.99
69247;BME280;56358;56.328;43.992;2024-03-29T03:44:25;100488.66;;;0.92;62.01
69247;BME280;56358;56.328;43.992;2024-03-29T03:46:26;100425.78;;;0.56;61.50
69247;BME280;56358;56.328;43.992;2024-03-29T03:48:26;100482.19;;;1.00;61.86
69247;BME280;56358;56.328;43.992;2024-03-29T03:50:27;100479.28;;;0.85;61.78
69247;BME280;56358;56.328;43.992;2024-03-29T03:52:28;100296.22;;;-0.06;61.85
69247;BME280;56358;56.328;43.992;2024-03-29T03:54:28;100478.53;;;1.03;61.84
69247;BME280;56358;56.328;43.992;2024-03-29T03:56:29;100455.03;;;0.97;61.61
69247;BME280;56358;56.328;43.992;2024-03-29T03:58:30;100474.63;;;1.13;61.64
69247;BME280;56358;56.328;43.992;2024-03-29T04:00:31;100475.53;;;1.14;61.59
69247;BME280;56358;56.328;43.992;2024-03-29T04:02:31;100479.63;;;1.21;61.71
69247;BME280;56358;56.328;43.992;2024-03-29T04:04:32;100473.25;;;1.27;61.14
69247;BME280;56358;56.328;43.992;2024-03-29T04:06:33;100388.09;;;0.76;61.07
69247;BME280;56358;56.328;43.992;2024-03-29T04:08:33;100473.06;;;1.31;60.95
69247;BME280;56358;56.328;43.992;2024-03-29T04:10:38;100303.13;;;0.22;60.67
69247;BME280;56358;56.328;43.992;2024-03-29T04:12:39;100386.41;;;0.97;60.63
69247;BME280;56358;56.328;43.992;2024-03-29T04:14:39;100467.47;;;1.39;61.16
69247;BME280;56358;56.328;43.992;2024-03-29T04:16:40;100453.03;;;1.48;61.29
69247;BME280;56358;56.328;43.992;2024-03-29T04:18:41;100429.56;;;1.40;61.51
69247;BME280;56358;56.328;43.992;2024-03-29T04:20:41;100448.06;;;1.62;60.97
69247;BME280;56358;56.328;43.992;2024-03-29T04:22:42;100459.22;;;1.69;60.58
69247;BME280;56358;56.328;43.992;2024-03-29T04:24:45;100449.34;;;1.74;60.33
69247;BME280;56358;56.328;43.992;2024-03-29T04:26:46;100444.69;;;1.79;59.57
69247;BME280;56358;56.328;43.992;2024-03-29T04:28:47;100432.66;;;1.72;59.14
69247;BME280;56358;56.328;43.992;2024-03-29T04:30:57;100425.00;;;1.87;58.22
69247;BME280;56358;56.328;43.992;2024-03-29T04:32:57;100440.34;;;1.99;58.54
69247;BME280;56358;56.328;43.992;2024-03-29T04:34:58;100438.31;;;2.06;58.85
69247;BME280;56358;56.328;43.992;2024-03-29T04:36:59;100381.38;;;1.76;59.04
69247;BME280;56358;56.328;43.992;2024-03-29T04:39:00;100441.31;;;2.17;58.99
69247;BME280;56358;56.328;43.992;2024-03-29T04:41:01;100440.28;;;2.21;59.00
69247;BME280;56358;56.328;43.992;2024-03-29T04:43:02;100390.84;;;2.03;58.39
69247;BME280;56358;56.328;43.992;2024-03-29T04:45:03;100400.22;;;2.10;58.52
69247;BME280;56358;56.328;43.992;2024-03-29T04:47:05;100219.72;;;1.06;58.22
69247;BME280;56358;56.328;43.992;2024-03-29T04:49:06;100465.16;;;2.57;57.55
69247;BME280;56358;56.328;43.992;2024-03-29T04:51:08;100408.91;;;2.32;57.08
69247;BME280;56358;56.328;43.992;2024-03-29T04:53:09;100457.88;;;2.62;56.71
69247;BME280;56358;56.328;43.992;2024-03-29T04:55:10;100460.88;;;2.73;56.16
69247;BME280;56358;56.328;43.992;2024-03-29T04:57:11;100470.06;;;2.85;55.68
69247;BME280;56358;56.328;43.992;2024-03-29T04:59:13;100467.06;;;2.93;55.43
69247;BME280;56358;56.328;43.992;2024-03-29T05:01:18;100454.63;;;2.95;55.49
69247;BME280;56358;56.328;43.992;2024-03-29T05:03:19;100470.78;;;3.08;55.37
69247;BME280;56358;56.328;43.992;2024-03-29T05:05:21;100462.47;;;3.15;54.79
69247;BME280;56358;56.328;43.992;2024-03-29T05:07:21;100441.44;;;3.12;54.63
69247;BME280;56358;56.328;43.992;2024-03-29T05:09:23;100452.28;;;3.25;54.68
69247;BME280;56358;56.328;43.992;2024-03-29T05:11:24;100431.41;;;3.19;54.50
69247;BME280;56358;56.328;43.992;2024-03-29T05:13:25;100467.03;;;3.50;54.56
69247;BME280;56358;56.328;43.992;2024-03-29T05:15:26;100471.09;;;3.57;54.74
69247;BME280;56358;56.328;43.992;2024-03-29T05:17:26;100459.28;;;3.64;54.17
69247;BME280;56358;56.328;43.992;2024-03-29T05:19:30;100446.41;;;3.74;53.68
69247;BME280;56358;56.328;43.992;2024-03-29T05:21:30;100457.88;;;3.92;53.16
69247;BME280;56358;56.328;43.992;2024-03-29T05:23:31;100459.97;;;4.03;53.37
69247;BME280;56358;56.328;43.992;2024-03-29T05:25:32;100430.78;;;4.03;53.62
69247;BME280;56358;56.328;43.992;2024-03-29T05:27:32;100449.28;;;4.22;53.10
69247;BME280;56358;56.328;43.992;2024-03-29T05:29:33;100445.44;;;4.28;52.81
69247;BME280;56358;56.328;43.992;2024-03-29T05:31:34;100426.00;;;4.27;51.52
69247;BME280;56358;56.328;43.992;2024-03-29T05:33:34;100435.50;;;4.49;51.48
69247;BME280;56358;56.328;43.992;2024-03-29T05:35:35;100374.16;;;4.38;46.00
69247;BME280;56358;56.328;43.992;2024-03-29T05:37:36;100385.44;;;4.75;43.63
69247;BME280;56358;56.328;43.992;2024-03-29T05:39:37;100370.75;;;4.99;43.25
69247;BME280;56358;56.328;43.992;2024-03-29T05:41:38;100433.34;;;5.67;40.33
69247;BME280;56358;56.328;43.992;2024-03-29T05:43:39;100433.56;;;5.95;40.45
69247;BME280;56358;56.328;43.992;2024-03-29T05:45:40;100434.88;;;6.18;39.87
69247;BME280;56358;56.328;43.992;2024-03-29T05:47:41;100433.56;;;6.40;40.06
69247;BME280;56358;56.328;43.992;2024-03-29T05:49:42;100429.75;;;6.58;39.54
69247;BME280;56358;56.328;43.992;2024-03-29T05:51:42;100396.19;;;6.56;39.51
69247;BME280;56358;56.328;43.992;2024-03-29T05:53:43;100434.78;;;6.92;39.08
69247;BME280;56358;56.328;43.992;2024-03-29T05:55:44;100425.78;;;7.07;38.58
69247;BME280;56358;56.328;43.992;2024-03-29T05:57:45;100427.75;;;7.18;37.43
69247;BME280;56358;56.328;43.992;2024-03-29T05:59:46;100415.66;;;7.27;37.69
69247;BME280;56358;56.328;43.992;2024-03-29T06:01:46;100406.09;;;7.37;37.75
69247;BME280;56358;56.328;43.992;2024-03-29T06:03:47;100372.19;;;7.12;37.30
69247;BME280;56358;56.328;43.992;2024-03-29T06:05:48;100422.47;;;7.45;36.73
69247;BME280;56358;56.328;43.992;2024-03-29T06:07:49;100402.72;;;7.48;36.97
69247;BME280;56358;56.328;43.992;2024-03-29T06:09:49;100396.56;;;7.60;37.30
69247;BME280;56358;56.328;43.992;2024-03-29T06:11:50;100338.56;;;7.36;36.70
69247;BME280;56358;56.328;43.992;2024-03-29T06:13:51;100378.34;;;7.67;36.89
69247;BME280;56358;56.328;43.992;2024-03-29T06:15:54;100368.22;;;7.72;36.76
69247;BME280;56358;56.328;43.992;2024-03-29T06:18:14;100378.69;;;7.88;36.35
69247;BME280;56358;56.328;43.992;2024-03-29T06:20:17;100393.31;;;7.95;36.45
69247;BME280;56358;56.328;43.992;2024-03-29T06:22:18;100393.03;;;8.00;36.01
69247;BME280;56358;56.328;43.992;2024-03-29T06:24:19;100314.63;;;7.62;36.20
69247;BME280;56358;56.328;43.992;2024-03-29T06:26:20;100389.81;;;8.08;35.97
69247;BME280;56358;56.328;43.992;2024-03-29T06:28:21;100386.41;;;8.05;35.46
69247;BME280;56358;56.328;43.992;2024-03-29T06:30:21;100387.25;;;8.06;35.72
69247;BME280;56358;56.328;43.992;2024-03-29T06:32:22;100387.78;;;8.11;35.96
69247;BME280;56358;56.328;43.992;2024-03-29T06:34:23;100380.44;;;8.15;35.85
69247;BME280;56358;56.328;43.992;2024-03-29T06:36:24;100398.47;;;8.11;35.44
69247;BME280;56358;56.328;43.992;2024-03-29T06:38:25;100362.91;;;7.98;35.72
69247;BME280;56358;56.328;43.992;2024-03-29T06:40:26;100391.34;;;8.12;36.14
69247;BME280;56358;56.328;43.992;2024-03-29T06:42:27;100376.28;;;8.11;35.41
69247;BME280;56358;56.328;43.992;2024-03-29T06:44:28;100367.50;;;8.21;35.95
69247;BME280;56358;56.328;43.992;2024-03-29T06:46:28;100364.31;;;8.29;35.45
69247;BME280;56358;56.328;43.992;2024-03-29T06:48:29;100353.28;;;8.21;35.15
69247;BME280;56358;56.328;43.992;2024-03-29T06:50:33;100374.97;;;8.42;35.26
69247;BME280;56358;56.328;43.992;2024-03-29T06:52:33;100364.94;;;8.46;34.72
69247;BME280;56358;56.328;43.992;2024-03-29T06:54:34;100299.38;;;8.16;34.72
69247;BME280;56358;56.328;43.992;2024-03-29T06:56:34;100357.13;;;8.55;34.65
69247;BME280;56358;56.328;43.992;2024-03-29T06:58:35;100330.84;;;8.36;34.76
69247;BME280;56358;56.328;43.992;2024-03-29T07:00:36;100295.16;;;8.25;34.59
69247;BME280;56358;56.328;43.992;2024-03-29T07:02:36;100354.44;;;8.55;34.75
69247;BME280;56358;56.328;43.992;2024-03-29T07:04:37;100362.78;;;8.64;34.21
69247;BME280;56358;56.328;43.992;2024-03-29T07:06:38;100359.13;;;8.65;34.03
69247;BME280;56358;56.328;43.992;2024-03-29T07:08:40;100371.84;;;8.61;33.94
69247;BME280;56358;56.328;43.992;2024-03-29T07:10:40;100349.41;;;8.64;33.56
69247;BME280;56358;56.328;43.992;2024-03-29T07:12:41;100164.38;;;7.49;33.86
69247;BME280;56358;56.328;43.992;2024-03-29T07:14:41;100357.09;;;8.68;33.89
69247;BME280;56358;56.328;43.992;2024-03-29T07:16:43;100348.88;;;8.71;33.69
69247;BME280;56358;56.328;43.992;2024-03-29T07:18:44;100337.09;;;8.74;33.91
69247;BME280;56358;56.328;43.992;2024-03-29T07:20:45;100321.50;;;8.68;33.04
69247;BME280;56358;56.328;43.992;2024-03-29T07:22:45;100343.59;;;8.83;33.41
69247;BME280;56358;56.328;43.992;2024-03-29T07:24:46;100329.25;;;8.84;33.32
69247;BME280;56358;56.328;43.992;2024-03-29T07:26:47;100332.44;;;8.89;33.33
69247;BME280;56358;56.328;43.992;2024-03-29T07:28:48;100330.13;;;8.84;33.00
69247;BME280;56358;56.328;43.992;2024-03-29T07:30:48;100271.34;;;8.47;33.07
69247;BME280;56358;56.328;43.992;2024-03-29T07:32:50;100277.72;;;8.58;33.68
69247;BME280;56358;56.328;43.992;2024-03-29T07:34:51;100287.38;;;8.71;33.40
69247;BME280;56358;56.328;43.992;2024-03-29T07:36:52;100315.97;;;8.95;33.20
69247;BME280;56358;56.328;43.992;2024-03-29T07:38:52;100321.06;;;8.98;32.44
69247;BME280;56358;56.328;43.992;2024-03-29T07:40:53;100312.34;;;8.96;32.81
69247;BME280;56358;56.328;43.992;2024-03-29T07:42:55;100325.63;;;9.09;33.36
69247;BME280;56358;56.328;43.992;2024-03-29T07:44:56;100314.81;;;9.11;33.32
69247;BME280;56358;56.328;43.992;2024-03-29T07:46:56;100328.94;;;9.13;33.17
69247;BME280;56358;56.328;43.992;2024-03-29T07:48:57;100291.66;;;8.98;33.49
69247;BME280;56358;56.328;43.992;2024-03-29T07:50:58;100309.69;;;9.08;33.97
69247;BME280;56358;56.328;43.992;2024-03-29T07:52:58;100311.25;;;8.99;33.12
69247;BME280;56358;56.328;43.992;2024-03-29T07:54:59;100312.50;;;9.06;33.35
69247;BME280;56358;56.328;43.992;2024-03-29T07:57:00;100250.09;;;8.70;33.11
69247;BME280;56358;56.328;43.992;2024-03-29T07:59:02;100280.44;;;8.93;33.28
69247;BME280;56358;56.328;43.992;2024-03-29T08:01:02;100265.16;;;8.95;33.54
69247;BME280;56358;56.328;43.992;2024-03-29T08:03:03;100282.31;;;9.04;33.18
69247;BME280;56358;56.328;43.992;2024-03-29T08:05:04;100287.84;;;9.14;32.94
69247;BME280;56358;56.328;43.992;2024-03-29T08:07:05;100292.84;;;9.18;32.84
69247;BME280;56358;56.328;43.992;2024-03-29T08:09:06;100228.56;;;8.96;33.00
69247;BME280;56358;56.328;43.992;2024-03-29T08:11:06;100271.69;;;9.15;31.51
69247;BME280;56358;56.328;43.992;2024-03-29T08:13:10;100280.94;;;9.22;32.32
69247;BME280;56358;56.328;43.992;2024-03-29T08:15:11;100267.94;;;9.18;31.02
69247;BME280;56358;56.328;43.992;2024-03-29T08:17:11;100263.19;;;9.21;31.81
69247;BME280;56358;56.328;43.992;2024-03-29T08:19:12;100271.84;;;9.25;31.50
69247;BME280;56358;56.328;43.992;2024-03-29T08:21:14;100236.38;;;8.99;31.40
69247;BME280;56358;56.328;43.992;2024-03-29T08:23:14;100271.44;;;9.18;31.52
69247;BME280;56358;56.328;43.992;2024-03-29T08:25:15;100254.28;;;9.10;31.38
69247;BME280;56358;56.328;43.992;2024-03-29T08:27:16;100209.06;;;8.82;31.50
69247;BME280;56358;56.328;43.992;2024-03-29T08:29:17;100264.63;;;9.14;31.86
69247;BME280;56358;56.328;43.992;2024-03-29T08:31:17;100257.84;;;9.21;31.71
69247;BME280;56358;56.328;43.992;2024-03-29T08:33:19;100271.16;;;9.34;31.64
69247;BME280;56358;56.328;43.992;2024-03-29T08:35:20;100265.84;;;9.46;31.71
69247;BME280;56358;56.328;43.992;2024-03-29T08:37:21;100267.78;;;9.55;31.65
69247;BME280;56358;56.328;43.992;2024-03-29T08:39:21;100263.31;;;9.55;31.70
69247;BME280;56358;56.328;43.992;2024-03-29T08:41:22;100265.00;;;9.68;31.98
69247;BME280;56358;56.328;43.992;2024-03-29T08:43:23;100158.88;;;9.21;31.99
69247;BME280;56358;56.328;43.992;2024-03-29T08:45:24;100257.97;;;9.78;31.71
69247;BME280;56358;56.328;43.992;2024-03-29T08:47:24;100268.94;;;9.86;30.95
69247;BME280;56358;56.328;43.992;2024-03-29T08:49:25;100197.22;;;9.56;31.24
69247;BME280;56358;56.328;43.992;2024-03-29T08:51:25;100252.53;;;10.02;31.00
69247;BME280;56358;56.328;43.992;2024-03-29T08:53:26;100225.59;;;10.04;31.05
69247;BME280;56358;56.328;43.992;2024-03-29T08:55:27;100253.50;;;10.13;30.67
69247;BME280;56358;56.328;43.992;2024-03-29T08:57:28;100250.56;;;10.16;30.40
69247;BME280;56358;56.328;43.992;2024-03-29T08:59:29;100259.09;;;10.44;30.84
69247;BME280;56358;56.328;43.992;2024-03-29T09:01:31;100245.47;;;10.90;29.55
69247;BME280;56358;56.328;43.992;2024-03-29T09:03:31;100242.66;;;11.34;29.42
69247;BME280;56358;56.328;43.992;2024-03-29T09:05:32;100224.19;;;11.62;28.45
69247;BME280;56358;56.328;43.992;2024-03-29T09:07:33;100230.34;;;11.74;28.50
69247;BME280;56358;56.328;43.992;2024-03-29T09:09:33;100220.97;;;11.89;28.41
69247;BME280;56358;56.328;43.992;2024-03-29T09:11:34;100192.38;;;12.10;27.47
69247;BME280;56358;56.328;43.992;2024-03-29T09:13:35;100232.03;;;12.37;27.70
69247;BME280;56358;56.328;43.992;2024-03-29T09:15:36;100211.16;;;12.89;27.22
69247;BME280;56358;56.328;43.992;2024-03-29T09:17:37;100218.66;;;12.86;26.81
69247;BME280;56358;56.328;43.992;2024-03-29T09:19:38;100161.72;;;13.00;26.98
69247;BME280;56358;56.328;43.992;2024-03-29T09:21:39;100213.03;;;13.75;26.15
69247;BME280;56358;56.328;43.992;2024-03-29T09:23:39;100158.16;;;13.77;26.15
69247;BME280;56358;56.328;43.992;2024-03-29T09:25:42;100202.00;;;14.34;25.51
69247;BME280;56358;56.328;43.992;2024-03-29T09:27:45;100201.88;;;14.54;25.28
69247;BME280;56358;56.328;43.992;2024-03-29T09:29:49;100196.00;;;14.58;25.00
69247;BME280;56358;56.328;43.992;2024-03-29T09:31:50;100184.22;;;14.59;25.04
69247;BME280;56358;56.328;43.992;2024-03-29T09:33:51;100207.09;;;14.83;24.51
69247;BME280;56358;56.328;43.992;2024-03-29T09:35:59;100206.47;;;14.71;25.07
69247;BME280;56358;56.328;43.992;2024-03-29T09:38:00;100146.66;;;14.12;25.76
69247;BME280;56358;56.328;43.992;2024-03-29T09:40:01;100189.78;;;14.58;25.47
69247;BME280;56358;56.328;43.992;2024-03-29T09:42:06;100191.31;;;14.88;25.09
69247;BME280;56358;56.328;43.992;2024-03-29T09:44:07;100194.97;;;15.23;24.72
69247;BME280;56358;56.328;43.992;2024-03-29T09:46:09;100182.06;;;15.35;24.95
69247;BME280;56358;56.328;43.992;2024-03-29T09:48:10;100183.44;;;15.39;25.12
69247;BME280;56358;56.328;43.992;2024-03-29T09:50:11;100182.06;;;15.70;24.82
69247;BME280;56358;56.328;43.992;2024-03-29T09:52:13;100181.50;;;15.84;23.88
69247;BME280;56358;56.328;43.992;2024-03-29T09:54:14;100178.72;;;15.94;24.13
69247;BME280;56358;56.328;43.992;2024-03-29T09:56:16;100167.38;;;15.90;24.76
69247;BME280;56358;56.328;43.992;2024-03-29T09:58:17;100170.50;;;15.51;24.58
69247;BME280;56358;56.328;43.992;2024-03-29T10:00:18;100170.69;;;15.84;24.49
69247;BME280;56358;56.328;43.992;2024-03-29T10:02:20;100159.84;;;16.11;23.85
69247;BME280;56358;56.328;43.992;2024-03-29T10:04:24;100165.03;;;16.47;23.80
69247;BME280;56358;56.328;43.992;2024-03-29T10:06:25;100168.19;;;16.42;23.49
69247;BME280;56358;56.328;43.992;2024-03-29T10:08:26;100114.88;;;16.18;24.18
69247;BME280;56358;56.328;43.992;2024-03-29T10:10:27;100164.25;;;16.12;23.79
69247;BME280;56358;56.328;43.992;2024-03-29T10:12:29;100155.28;;;16.19;23.51
69247;BME280;56358;56.328;43.992;2024-03-29T10:14:31;100155.16;;;16.21;23.59
69247;BME280;56358;56.328;43.992;2024-03-29T10:16:31;100145.34;;;16.28;23.53
69247;BME280;56358;56.328;43.992;2024-03-29T10:18:33;100157.56;;;16.40;24.14
69247;BME280;56358;56.328;43.992;2024-03-29T10:20:34;100135.97;;;15.98;23.71
69247;BME280;56358;56.328;43.992;2024-03-29T10:22:45;100170.19;;;15.81;24.02
69247;BME280;56358;56.328;43.992;2024-03-29T10:24:46;100150.69;;;15.69;24.53
69247;BME280;56358;56.328;43.992;2024-03-29T10:26:46;100132.69;;;15.51;24.09
69247;BME280;56358;56.328;43.992;2024-03-29T10:28:48;100101.75;;;15.80;23.96
69247;BME280;56358;56.328;43.992;2024-03-29T10:30:50;100096.84;;;16.27;23.74